Time;durP1;ratioP1;P1;durP2;ratioP2;P2;SDS_P1;SDS_P2;PMS_P1;PMS_P2;Temp;Humidity;BMP_temperature;BMP_pressure;BME280_temperature;BME280_humidity;BME280_pressure;Samples;Min_cycle;Max_cycle;Signal;HPM_P1;HPM_P2
2021/08/06 00:00:50;;;;;;;17.67;9.43;;;;;;;17.34;100.00;99125.50;5141927;27;20042;-57
2021/08/06 00:03:17;;;;;;;15.52;9.82;;;;;;;17.38;100.00;99129.59;5146324;27;20053;-56
2021/08/06 00:05:43;;;;;;;15.00;9.57;;;;;;;17.35;100.00;99128.03;5133715;27;20030;-55
2021/08/06 00:08:08;;;;;;;19.55;11.63;;;;;;;17.32;100.00;99122.97;5165797;27;20087;-56
2021/08/06 00:10:34;;;;;;;17.27;10.45;;;;;;;17.29;100.00;99125.00;5167602;27;20058;-56
2021/08/06 00:13:00;;;;;;;15.02;9.20;;;;;;;17.24;100.00;99122.69;5158482;27;20043;-54
2021/08/06 00:15:26;;;;;;;18.23;9.65;;;;;;;17.20;100.00;99121.25;5138528;27;20465;-56
2021/08/06 00:17:52;;;;;;;12.68;8.88;;;;;;;17.19;100.00;99119.56;5147447;27;20926;-57
2021/08/06 00:20:18;;;;;;;17.30;8.88;;;;;;;17.11;100.00;99108.75;5135327;27;20042;-56
2021/08/06 00:22:44;;;;;;;19.42;8.73;;;;;;;17.16;100.00;99114.53;5150316;27;20042;-56
2021/08/06 00:25:10;;;;;;;14.48;9.32;;;;;;;17.14;100.00;99107.69;5140648;27;20042;-56
2021/08/06 00:27:36;;;;;;;12.40;8.23;;;;;;;17.13;100.00;99111.25;5116501;27;20610;-55
2021/08/06 00:30:02;;;;;;;15.00;9.07;;;;;;;17.11;100.00;99110.53;5137907;27;20053;-55
2021/08/06 00:32:27;;;;;;;12.52;9.18;;;;;;;17.10;100.00;99103.59;5133302;27;20070;-57
2021/08/06 00:34:59;;;;;;;14.80;9.80;;;;;;;17.08;100.00;99093.19;5081954;27;20500;-56
2021/08/06 00:37:27;;;;;;;14.48;9.20;;;;;;;17.09;100.00;99089.63;5115000;27;20103;-56
2021/08/06 00:39:55;;;;;;;13.10;8.65;;;;;;;17.09;100.00;99080.91;5114378;27;20042;-55
2021/08/06 00:42:21;;;;;;;15.90;8.93;;;;;;;17.10;100.00;99077.34;5133940;27;20035;-56
2021/08/06 00:44:47;;;;;;;12.70;9.05;;;;;;;17.14;100.00;99086.66;5134102;27;20125;-56
2021/08/06 00:47:14;;;;;;;15.85;9.23;;;;;;;17.14;100.00;99087.50;5131032;27;20470;-56
2021/08/06 00:49:41;;;;;;;14.45;9.35;;;;;;;17.15;100.00;99089.19;5113767;27;20038;-56
2021/08/06 00:52:11;;;;;;;14.13;9.13;;;;;;;17.15;100.00;99088.34;5134912;27;20480;-56
2021/08/06 00:54:41;;;;;;;14.20;10.05;;;;;;;17.13;100.00;99104.22;5132999;27;20046;-56
2021/08/06 00:57:13;;;;;;;13.23;9.25;;;;;;;17.09;100.00;99089.63;5100770;27;20045;-58
2021/08/06 00:59:42;;;;;;;16.83;9.32;;;;;;;17.04;100.00;99094.38;5133712;27;20046;-53
2021/08/06 01:02:22;;;;;;;14.18;9.65;;;;;;;17.00;100.00;99105.19;5133637;27;20042;-56
2021/08/06 01:05:07;;;;;;;13.23;9.88;;;;;;;16.93;100.00;99104.78;5139945;27;20035;-55
2021/08/06 01:07:53;;;;;;;15.15;9.82;;;;;;;16.90;100.00;99105.00;5132874;27;20044;-52
2021/08/06 01:10:24;;;;;;;16.55;10.27;;;;;;;16.85;100.00;99101.84;5112603;27;20126;-56
2021/08/06 01:12:57;;;;;;;22.85;10.30;;;;;;;16.84;100.00;99097.53;5129778;27;20463;-56
2021/08/06 01:15:27;;;;;;;13.15;10.07;;;;;;;16.83;100.00;99101.09;5124570;27;20128;-56
2021/08/06 01:17:59;;;;;;;14.40;9.20;;;;;;;16.83;100.00;99093.22;5129443;27;20046;-57
2021/08/06 01:20:28;;;;;;;13.02;9.02;;;;;;;16.83;100.00;99090.59;5131900;27;20125;-56
2021/08/06 01:36:06;;;;;;;14.60;10.27;;;;;;;16.73;100.00;99094.81;4882135;29;20108;-55
2021/08/06 01:38:34;;;;;;;12.57;9.38;;;;;;;16.71;100.00;99070.44;4896150;29;20068;-54
2021/08/06 01:41:25;;;;;;;14.63;9.98;;;;;;;16.70;100.00;99079.25;5068709;28;20055;-56
2021/08/06 01:43:57;;;;;;;13.40;9.98;;;;;;;16.68;100.00;99081.16;5052012;28;20051;-54
2021/08/06 01:46:30;;;;;;;14.95;9.95;;;;;;;16.68;100.00;99076.75;5072599;28;20496;-56
2021/08/06 01:49:03;;;;;;;14.80;10.07;;;;;;;16.70;100.00;99072.22;5049901;28;20067;-57
2021/08/06 01:51:33;;;;;;;12.50;9.95;;;;;;;16.73;100.00;99079.06;5049588;28;20046;-55
2021/08/06 01:54:00;;;;;;;14.48;9.70;;;;;;;16.76;100.00;99079.69;5062603;28;20036;-56
2021/08/06 01:56:27;;;;;;;14.38;9.63;;;;;;;16.82;100.00;99073.16;5085043;28;20046;-57
2021/08/06 01:58:56;;;;;;;15.98;9.82;;;;;;;16.79;100.00;99062.91;5086201;28;20051;-56
2021/08/06 02:01:32;;;;;;;14.68;9.90;;;;;;;16.84;100.00;99066.88;5085035;28;20048;-56
2021/08/06 02:04:10;;;;;;;16.85;10.43;;;;;;;16.96;100.00;99080.91;5084547;28;20083;-57
2021/08/06 02:06:37;;;;;;;23.10;11.23;;;;;;;16.94;100.00;99070.53;5068113;28;20472;-58
2021/08/06 02:09:08;;;;;;;16.23;10.98;;;;;;;17.03;100.00;99084.81;5068339;28;20090;-57
2021/08/06 02:11:40;;;;;;;25.85;12.50;;;;;;;17.06;100.00;99083.75;5068796;28;20131;-54
2021/08/06 02:14:15;;;;;;;17.13;10.43;;;;;;;17.10;100.00;99091.31;5083743;28;20048;-55
2021/08/06 02:16:47;;;;;;;16.80;10.75;;;;;;;17.11;100.00;99074.59;5084219;28;20044;-55
2021/08/06 02:19:14;;;;;;;18.83;11.37;;;;;;;17.15;100.00;99068.19;5084778;28;20072;-56
2021/08/06 02:21:41;;;;;;;19.50;10.43;;;;;;;17.21;100.00;99064.28;5084879;28;20044;-57
2021/08/06 02:24:17;;;;;;;11.68;9.05;;;;;;;17.19;100.00;99046.00;5069562;28;20512;-57
2021/08/06 02:26:46;;;;;;;17.93;10.33;;;;;;;17.20;100.00;99031.06;5067763;28;20036;-57
2021/08/06 02:29:15;;;;;;;14.40;10.32;;;;;;;17.34;100.00;99049.31;5067242;28;20310;-58
2021/08/06 02:31:44;;;;;;;14.60;10.07;;;;;;;17.40;100.00;99061.16;5084207;28;20082;-56
2021/08/06 02:34:14;;;;;;;19.70;11.13;;;;;;;17.42;100.00;99052.22;5067665;28;20052;-55
2021/08/06 02:36:40;;;;;;;16.67;10.85;;;;;;;17.45;100.00;99041.50;5067175;28;20056;-57
2021/08/06 02:39:21;;;;;;;15.25;11.30;;;;;;;17.35;100.00;99025.56;5084233;28;20036;-58
2021/08/06 02:41:47;;;;;;;16.38;10.65;;;;;;;17.41;100.00;99018.19;5076228;28;20036;-56
2021/08/06 02:44:13;;;;;;;18.50;10.32;;;;;;;17.55;100.00;99047.75;5054099;28;20040;-56
2021/08/06 02:46:40;;;;;;;15.25;10.95;;;;;;;17.54;100.00;99032.94;5070491;28;20040;-54
2021/08/06 02:49:06;;;;;;;17.77;11.27;;;;;;;17.53;100.00;99033.06;5041083;28;20045;-57
2021/08/06 02:51:32;;;;;;;16.67;10.43;;;;;;;17.65;100.00;99038.28;5050614;28;20041;-56
2021/08/06 02:53:58;;;;;;;16.98;11.63;;;;;;;17.69;100.00;99047.59;5069435;28;20186;-55
2021/08/06 02:56:24;;;;;;;16.45;11.07;;;;;;;17.66;100.00;99039.13;5050460;28;20087;-56
2021/08/06 02:58:53;;;;;;;13.80;10.48;;;;;;;17.76;100.00;99043.56;5054596;28;20051;-56
2021/08/06 03:01:19;;;;;;;17.85;12.00;;;;;;;17.75;100.00;99034.00;5070271;28;20576;-56
2021/08/06 03:03:45;;;;;;;15.93;10.70;;;;;;;17.84;100.00;99042.19;5068830;28;20048;-56
2021/08/06 03:06:11;;;;;;;14.63;10.50;;;;;;;17.79;100.00;99034.63;5070283;28;20131;-55
2021/08/06 03:08:37;;;;;;;15.90;11.82;;;;;;;17.91;100.00;99038.97;5070425;28;20045;-57
2021/08/06 03:11:05;;;;;;;23.98;11.25;;;;;;;17.93;100.00;99034.44;5050479;28;20053;-55
2021/08/06 03:13:39;;;;;;;15.50;10.68;;;;;;;17.82;100.00;99013.38;5063593;28;20543;-56
2021/08/06 03:16:05;;;;;;;18.60;11.05;;;;;;;17.94;100.00;99030.88;5069125;28;20048;-57
2021/08/06 03:18:31;;;;;;;17.40;10.85;;;;;;;18.04;100.00;99041.53;5068293;28;20097;-56
2021/08/06 03:20:58;;;;;;;15.60;10.43;;;;;;;18.08;100.00;99053.50;5037306;28;20040;-56
2021/08/06 03:23:26;;;;;;;19.85;11.32;;;;;;;18.09;100.00;99049.91;5047626;28;20052;-57
2021/08/06 03:25:53;;;;;;;14.48;10.75;;;;;;;18.15;100.00;99052.94;5070205;28;20072;-57
2021/08/06 03:28:21;;;;;;;16.15;10.27;;;;;;;18.20;99.89;99047.31;5070336;28;20135;-57
2021/08/06 03:30:48;;;;;;;14.95;10.35;;;;;;;18.27;99.30;99056.41;5070538;28;20036;-56
2021/08/06 03:33:15;;;;;;;18.88;10.52;;;;;;;18.19;98.47;99029.84;5069445;28;20508;-56
2021/08/06 03:35:41;;;;;;;16.20;10.20;;;;;;;18.39;97.13;99049.38;5053144;28;20109;-57
2021/08/06 03:38:18;;;;;;;12.80;10.15;;;;;;;18.45;96.03;99052.38;5085541;28;20151;-56
2021/08/06 03:40:46;;;;;;;15.18;10.25;;;;;;;18.50;95.23;99062.56;5089839;28;20391;-57
2021/08/06 03:43:12;;;;;;;16.45;11.70;;;;;;;18.47;94.54;99042.59;5072688;28;20428;-58
2021/08/06 03:45:38;;;;;;;15.38;10.68;;;;;;;18.59;93.95;99048.72;5089642;28;20044;-56
2021/08/06 03:48:05;;;;;;;15.23;10.70;;;;;;;18.55;93.33;99034.97;5085016;28;20503;-57
2021/08/06 03:50:31;;;;;;;14.25;10.25;;;;;;;18.56;92.31;99026.13;5072087;28;20047;-57
2021/08/06 03:52:58;;;;;;;17.10;11.68;;;;;;;18.72;91.77;99041.56;5088608;28;20121;-57
2021/08/06 03:55:24;;;;;;;16.08;10.70;;;;;;;18.81;91.32;99047.88;5090110;28;20039;-57
2021/08/06 03:57:55;;;;;;;14.30;11.38;;;;;;;18.79;91.12;99037.47;5090835;28;20453;-57
2021/08/06 04:00:23;;;;;;;17.80;10.63;;;;;;;18.93;90.69;99039.88;5088605;28;20402;-57
2021/08/06 04:02:50;;;;;;;14.98;10.70;;;;;;;19.00;90.07;99040.22;5089231;28;20546;-55
2021/08/06 04:05:16;;;;;;;18.65;11.65;;;;;;;19.04;89.38;99044.31;5089077;28;20048;-58
2021/08/06 04:07:43;;;;;;;17.90;10.77;;;;;;;19.08;88.86;99040.47;5089854;28;20054;-58
2021/08/06 04:10:11;;;;;;;17.38;10.70;;;;;;;19.09;88.31;99028.13;5088396;28;20044;-58
2021/08/06 04:12:37;;;;;;;18.88;11.27;;;;;;;19.20;87.97;99036.00;5088897;28;20043;-57
2021/08/06 04:15:04;;;;;;;19.17;11.63;;;;;;;19.25;87.73;99028.56;5089200;28;20039;-57
2021/08/06 04:17:30;;;;;;;16.05;10.05;;;;;;;19.23;87.63;99026.06;5089342;28;20376;-57
2021/08/06 04:19:56;;;;;;;24.42;12.05;;;;;;;19.34;87.34;99035.72;5055332;28;20040;-57
2021/08/06 04:22:22;;;;;;;20.38;12.93;;;;;;;19.41;86.93;99029.84;5090003;28;20530;-57
2021/08/06 04:24:48;;;;;;;19.75;12.70;;;;;;;19.31;86.38;99012.28;5089044;28;20071;-57
2021/08/06 04:27:14;;;;;;;19.00;12.57;;;;;;;19.50;85.82;99030.09;5090599;28;20054;-57
2021/08/06 04:29:40;;;;;;;18.95;12.35;;;;;;;19.54;85.58;99040.25;5088272;28;20032;-57
2021/08/06 04:32:06;;;;;;;20.05;12.27;;;;;;;19.59;84.70;99032.81;5088913;28;20210;-57
2021/08/06 04:34:32;;;;;;;17.02;12.05;;;;;;;19.64;84.29;99037.72;5088870;28;20035;-56
2021/08/06 04:36:58;;;;;;;25.15;13.57;;;;;;;19.70;83.89;99039.84;5088294;28;20416;-57
2021/08/06 04:39:23;;;;;;;22.45;12.85;;;;;;;19.77;83.68;99044.50;5090563;28;20135;-57
2021/08/06 04:41:50;;;;;;;24.92;13.48;;;;;;;19.82;83.11;99046.75;5087243;28;20039;-58
2021/08/06 04:44:17;;;;;;;24.55;14.48;;;;;;;19.87;82.69;99048.06;5088819;28;20039;-58
2021/08/06 04:46:44;;;;;;;23.65;12.82;;;;;;;19.94;82.22;99043.09;5088528;28;20091;-56
2021/08/06 04:49:09;;;;;;;22.00;13.57;;;;;;;19.95;82.19;99036.84;5089893;28;20035;-57
2021/08/06 04:51:36;;;;;;;24.83;13.90;;;;;;;20.06;82.33;99046.50;5071187;28;20059;-57
2021/08/06 04:54:01;;;;;;;23.60;13.50;;;;;;;20.10;81.69;99050.56;5055122;28;20707;-58
2021/08/06 04:56:28;;;;;;;19.65;12.77;;;;;;;20.04;81.30;99041.38;5088925;28;20039;-58
2021/08/06 04:58:54;;;;;;;19.60;13.10;;;;;;;20.16;81.12;99050.06;5062055;28;20048;-57
2021/08/06 05:01:20;;;;;;;22.85;13.32;;;;;;;20.14;80.71;99050.22;5088716;28;20046;-58
2021/08/06 05:03:46;;;;;;;25.17;13.23;;;;;;;20.16;80.47;99053.53;5071637;28;20103;-57
2021/08/06 05:06:13;;;;;;;24.60;13.05;;;;;;;20.24;80.71;99060.84;5085735;28;20032;-58
2021/08/06 05:08:42;;;;;;;24.90;12.15;;;;;;;20.10;80.72;99040.84;5071871;28;20044;-57
2021/08/06 05:11:09;;;;;;;20.80;12.68;;;;;;;20.30;79.94;99074.34;5067036;28;20044;-57
2021/08/06 05:13:35;;;;;;;22.70;13.32;;;;;;;20.36;79.55;99075.66;5062781;28;20036;-58
2021/08/06 05:16:01;;;;;;;20.98;12.32;;;;;;;20.31;79.66;99048.81;5088191;28;20111;-58
2021/08/06 05:18:26;;;;;;;19.83;12.60;;;;;;;20.41;79.68;99070.00;5088109;28;20044;-58
2021/08/06 05:20:52;;;;;;;21.02;11.95;;;;;;;20.42;79.78;99058.47;5087559;28;20536;-58
2021/08/06 05:23:18;;;;;;;18.98;13.27;;;;;;;20.44;79.78;99067.09;5070610;28;20055;-58
2021/08/06 05:25:44;;;;;;;21.95;13.27;;;;;;;20.48;79.23;99058.78;5051747;28;20040;-57
2021/08/06 05:28:12;;;;;;;18.30;12.88;;;;;;;20.52;79.22;99062.81;5078860;28;20131;-58
2021/08/06 05:30:38;;;;;;;20.13;13.05;;;;;;;20.55;79.17;99057.31;5088546;28;20059;-57
2021/08/06 05:33:05;;;;;;;21.45;12.52;;;;;;;20.60;78.97;99062.19;5087597;28;20059;-58
2021/08/06 05:35:32;;;;;;;24.30;13.32;;;;;;;20.65;78.82;99060.00;5087290;28;20095;-57
2021/08/06 05:38:00;;;;;;;24.25;12.80;;;;;;;20.70;78.72;99057.78;5092045;28;20112;-57
2021/08/06 05:40:27;;;;;;;27.58;13.35;;;;;;;20.73;78.56;99054.88;5087903;28;20043;-57
2021/08/06 05:42:56;;;;;;;16.52;12.50;;;;;;;20.73;78.34;99055.72;5071929;28;20524;-58
2021/08/06 05:45:24;;;;;;;21.10;12.98;;;;;;;20.62;78.53;99039.13;5067149;28;20048;-57
2021/08/06 05:47:53;;;;;;;19.23;12.70;;;;;;;20.67;78.65;99039.56;5088095;28;20047;-56
2021/08/06 05:50:25;;;;;;;19.75;12.77;;;;;;;20.77;78.76;99055.47;5087899;28;20052;-57
2021/08/06 05:52:51;;;;;;;22.95;13.27;;;;;;;20.73;78.74;99045.16;5088039;28;20180;-57
2021/08/06 05:55:18;;;;;;;17.02;12.23;;;;;;;20.77;78.48;99031.69;5087785;28;20059;-56
2021/08/06 05:57:46;;;;;;;19.45;13.48;;;;;;;20.98;78.42;99046.53;5087852;28;20040;-56
2021/08/06 06:00:15;;;;;;;24.60;13.82;;;;;;;21.08;77.76;99041.25;5087329;28;20047;-57
2021/08/06 06:02:41;;;;;;;31.85;16.13;;;;;;;21.22;77.09;99051.47;5094895;28;20063;-56
2021/08/06 06:05:16;;;;;;;23.35;14.13;;;;;;;21.35;76.20;99045.97;5052565;28;20542;-56
2021/08/06 06:07:47;;;;;;;21.67;13.43;;;;;;;21.42;75.59;99045.25;5069366;28;20029;-58
2021/08/06 06:10:18;;;;;;;31.42;17.05;;;;;;;21.52;75.23;99054.03;5079729;28;20049;-52
2021/08/06 06:12:44;;;;;;;23.10;13.95;;;;;;;21.58;75.18;99049.19;5086058;28;20435;-50
2021/08/06 06:15:10;;;;;;;22.42;13.63;;;;;;;21.63;74.74;99053.09;5080969;28;20040;-49
2021/08/06 06:17:37;;;;;;;19.33;13.27;;;;;;;21.64;75.00;99048.63;5070896;28;20128;-48
2021/08/06 06:20:05;;;;;;;27.67;15.10;;;;;;;21.65;75.29;99048.50;5071068;28;20095;-52
2021/08/06 06:22:32;;;;;;;28.90;15.13;;;;;;;21.63;75.06;99045.16;5087511;28;20039;-51
2021/08/06 06:24:58;;;;;;;22.85;14.70;;;;;;;21.64;74.80;99049.47;5090453;28;20047;-50
2021/08/06 06:27:24;;;;;;;28.35;14.23;;;;;;;21.59;74.61;99040.28;5091757;28;20051;-48
2021/08/06 06:29:50;;;;;;;26.33;14.90;;;;;;;21.57;74.59;99032.47;5090817;28;20052;-47
2021/08/06 06:32:16;;;;;;;23.15;15.23;;;;;;;21.73;74.72;99058.38;5091278;28;20068;-48
2021/08/06 06:34:43;;;;;;;24.58;15.60;;;;;;;21.67;74.72;99046.53;5092587;28;20051;-49
2021/08/06 06:37:10;;;;;;;21.98;13.98;;;;;;;21.86;74.59;99051.84;5064209;28;20048;-49
2021/08/06 06:39:36;;;;;;;25.52;15.15;;;;;;;21.93;74.38;99062.69;5070448;28;20040;-51
2021/08/06 06:42:04;;;;;;;21.58;12.82;;;;;;;21.98;74.55;99059.69;5058943;28;20091;-46
2021/08/06 06:44:31;;;;;;;22.88;14.23;;;;;;;21.98;74.55;99058.69;5054262;28;20101;-50
2021/08/06 06:46:58;;;;;;;27.77;14.00;;;;;;;22.01;74.61;99054.09;5072329;28;20526;-47
2021/08/06 06:49:25;;;;;;;22.67;13.93;;;;;;;22.03;74.70;99060.94;5071276;28;20037;-47
2021/08/06 06:51:51;;;;;;;18.48;12.30;;;;;;;22.07;74.58;99050.91;5069215;28;20062;-50
2021/08/06 06:54:17;;;;;;;23.38;13.40;;;;;;;22.08;74.59;99052.56;5048860;28;20771;-46
2021/08/06 06:56:43;;;;;;;21.92;11.82;;;;;;;22.01;74.43;99047.00;5055072;28;20048;-58
2021/08/06 06:59:09;;;;;;;21.52;12.98;;;;;;;22.07;74.46;99056.19;5062225;28;20048;-59
2021/08/06 07:01:36;;;;;;;20.45;13.15;;;;;;;22.08;74.30;99058.72;5066310;28;20420;-60
2021/08/06 07:04:02;;;;;;;22.08;13.73;;;;;;;22.12;74.26;99060.09;5068935;28;20037;-61
2021/08/06 07:06:29;;;;;;;23.63;12.57;;;;;;;22.12;73.93;99057.44;5065490;28;20050;-60
2021/08/06 07:08:55;;;;;;;22.48;13.38;;;;;;;22.28;73.32;99060.34;5070686;28;20094;-59
2021/08/06 07:11:21;;;;;;;26.58;13.80;;;;;;;22.30;72.87;99047.78;5052616;28;20045;-57
2021/08/06 07:13:47;;;;;;;19.80;12.52;;;;;;;22.38;72.98;99055.03;5053979;28;20119;-59
2021/08/06 07:16:14;;;;;;;22.98;13.00;;;;;;;22.47;72.60;99059.47;5050821;28;20075;-45
2021/08/06 07:18:42;;;;;;;22.80;12.60;;;;;;;22.54;71.97;99046.50;5071540;28;20047;-47
2021/08/06 07:21:12;;;;;;;20.58;12.80;;;;;;;22.69;71.57;99056.50;5071221;28;20111;-48
2021/08/06 07:23:39;;;;;;;24.45;14.10;;;;;;;22.81;71.15;99062.50;5056420;28;20051;-50
2021/08/06 07:26:07;;;;;;;21.25;12.95;;;;;;;22.91;70.99;99054.50;5041412;28;20432;-45
2021/08/06 07:28:32;;;;;;;23.08;12.30;;;;;;;23.01;70.68;99055.28;5071599;28;20044;-47
2021/08/06 07:30:58;;;;;;;24.58;13.65;;;;;;;23.10;70.14;99057.03;5069739;28;20052;-47
2021/08/06 07:33:25;;;;;;;21.75;12.75;;;;;;;23.22;69.59;99058.53;5069946;28;20389;-47
2021/08/06 07:35:51;;;;;;;27.73;12.48;;;;;;;23.38;69.02;99058.72;5071249;28;20045;-48
2021/08/06 07:38:17;;;;;;;23.90;12.05;;;;;;;23.59;68.29;99050.50;5089717;28;20044;-51
2021/08/06 07:40:44;;;;;;;26.40;12.48;;;;;;;23.85;67.48;99051.44;5089970;28;20511;-55
2021/08/06 07:43:12;;;;;;;23.67;11.68;;;;;;;24.15;66.05;99049.34;5071927;28;20134;-57
2021/08/06 07:45:38;;;;;;;23.95;12.05;;;;;;;24.46;64.72;99056.75;5072764;28;20126;-58
2021/08/06 07:48:04;;;;;;;18.45;11.85;;;;;;;24.65;63.95;99050.38;5070112;28;20655;-56
2021/08/06 07:50:31;;;;;;;22.85;11.40;;;;;;;24.93;62.39;99050.22;5088999;28;20109;-57
2021/08/06 07:52:58;;;;;;;27.00;15.05;;;;;;;25.12;61.82;99039.38;5090776;28;20036;-55
2021/08/06 07:55:25;;;;;;;27.40;17.98;;;;;;;25.35;60.84;99044.91;5072610;28;20040;-56
2021/08/06 07:57:52;;;;;;;23.33;12.05;;;;;;;25.59;60.21;99039.69;5089927;28;20054;-50
2021/08/06 08:00:18;;;;;;;15.25;10.90;;;;;;;25.75;59.82;99042.34;5088539;28;20051;-59
2021/08/06 08:02:46;;;;;;;21.45;11.20;;;;;;;26.02;58.59;99051.88;5082709;28;20059;-56
2021/08/06 08:05:20;;;;;;;25.38;11.35;;;;;;;26.39;56.77;99025.56;5088434;28;20089;-44
2021/08/06 08:07:48;;;;;;;28.00;12.20;;;;;;;26.74;55.89;99037.69;5078629;28;20040;-45
2021/08/06 08:10:14;;;;;;;27.70;11.20;;;;;;;26.77;55.40;99042.66;5088523;28;20048;-56
2021/08/06 08:12:39;;;;;;;16.92;10.40;;;;;;;26.60;55.31;99034.84;5088536;28;20514;-59
2021/08/06 08:15:07;;;;;;;31.23;13.85;;;;;;;26.63;55.58;99027.38;5072331;28;20051;-57
2021/08/06 08:17:33;;;;;;;18.40;11.70;;;;;;;26.52;55.62;99020.56;5068198;28;20134;-55
2021/08/06 08:19:59;;;;;;;20.60;10.43;;;;;;;26.44;55.98;99025.06;5088978;28;20036;-44
2021/08/06 08:22:25;;;;;;;21.15;10.57;;;;;;;26.11;56.76;99014.44;5090096;28;20048;-47
2021/08/06 08:24:51;;;;;;;23.63;12.32;;;;;;;25.92;56.93;99025.41;5070376;28;20044;-49
2021/08/06 08:27:20;;;;;;;20.77;11.38;;;;;;;25.71;57.75;99017.91;5089239;28;20085;-51
2021/08/06 08:29:47;;;;;;;22.92;10.85;;;;;;;25.47;58.01;99015.19;5088257;28;20413;-47
2021/08/06 08:32:17;;;;;;;20.58;10.60;;;;;;;25.33;57.72;99012.31;5088988;28;20055;-60
2021/08/06 08:34:53;;;;;;;19.77;10.65;;;;;;;25.31;58.14;99020.47;5105256;28;20048;-62
2021/08/06 08:37:19;;;;;;;22.65;11.65;;;;;;;25.24;58.19;99035.41;5055910;28;20133;-59
2021/08/06 08:39:48;;;;;;;;;;;;;;;25.20;58.48;99024.25;5084172;28;20419;-62
2021/08/06 08:42:15;;;;;;;19.13;11.85;;;;;;;25.23;58.67;99029.25;5089267;28;19919;-62
2021/08/06 08:44:41;;;;;;;22.08;11.90;;;;;;;25.22;58.48;99029.44;5088998;28;20048;-62
2021/08/06 08:47:08;;;;;;;16.30;10.32;;;;;;;25.21;58.29;99030.41;5068897;28;20160;-63
2021/08/06 08:49:36;;;;;;;19.77;10.27;;;;;;;25.13;58.59;99023.22;5052063;28;20052;-64
2021/08/06 08:52:03;;;;;;;23.48;10.45;;;;;;;25.13;58.71;99031.19;5068595;28;20036;-63
2021/08/06 08:54:30;;;;;;;26.15;11.00;;;;;;;25.01;58.22;99024.53;5080671;28;20040;-61
2021/08/06 08:56:56;;;;;;;25.17;11.23;;;;;;;25.09;58.15;98997.94;5068969;28;20127;-62
2021/08/06 08:59:23;;;;;;;22.03;10.37;;;;;;;25.55;56.87;99025.00;5068592;28;20079;-62
2021/08/06 09:01:49;;;;;;;23.08;10.02;;;;;;;25.81;56.72;99023.06;5068742;28;20071;-62
2021/08/06 09:04:28;;;;;;;18.20;9.77;;;;;;;26.06;56.10;99019.44;5080340;28;20078;-61
2021/08/06 09:06:55;;;;;;;;;;;;;;;26.34;55.63;99024.41;5089213;28;20040;-62
2021/08/06 09:09:41;;;;;;;22.33;11.48;;;;;;;26.60;55.06;99025.03;5087706;28;20018;-61
2021/08/06 09:12:21;;;;;;;22.58;10.25;;;;;;;26.83;54.87;99017.97;5088646;28;20040;-62
2021/08/06 09:14:50;;;;;;;21.20;10.77;;;;;;;27.05;53.71;99007.56;5089850;28;20127;-62
2021/08/06 09:17:15;;;;;;;17.60;10.60;;;;;;;27.21;53.44;99015.50;5090113;28;20139;-61
2021/08/06 09:20:00;;;;;;;16.05;10.77;;;;;;;27.21;53.45;99021.69;5089537;28;20036;-63
2021/08/06 09:22:33;;;;;;;20.25;11.05;;;;;;;27.22;53.76;99034.00;5088754;28;20120;-61
2021/08/06 09:25:18;;;;;;;26.05;11.38;;;;;;;27.09;53.86;99031.06;5088360;28;20526;-66
2021/08/06 09:28:03;;;;;;;23.15;10.98;;;;;;;26.86;54.57;99028.28;5088885;28;20051;-64
2021/08/06 09:30:36;;;;;;;28.40;14.60;;;;;;;26.59;55.17;99025.22;5087667;28;20090;-61
2021/08/06 09:33:05;;;;;;;22.10;12.60;;;;;;;26.31;55.76;99030.94;5082522;28;20047;-62
2021/08/06 09:35:32;;;;;;;23.08;12.65;;;;;;;26.08;56.42;99025.41;5087990;28;20514;-69
2021/08/06 09:38:00;;;;;;;22.73;12.10;;;;;;;25.73;57.38;99015.09;5101040;28;20107;-61
2021/08/06 09:40:36;;;;;;;22.70;11.60;;;;;;;25.62;58.09;99028.72;5109708;28;20059;-53
2021/08/06 09:43:14;;;;;;;26.08;11.90;;;;;;;25.40;58.49;99031.94;5109952;28;20050;-49
2021/08/06 09:45:42;;;;;;;26.02;12.38;;;;;;;25.20;59.19;99034.06;5109299;28;20514;-56
2021/08/06 09:48:09;;;;;;;19.83;10.88;;;;;;;25.08;59.69;99041.50;5105299;28;20032;-59
2021/08/06 09:50:39;;;;;;;53.05;13.10;;;;;;;24.99;60.33;99039.81;5108626;28;20048;-59
2021/08/06 09:53:05;;;;;;;41.20;13.68;;;;;;;24.92;60.39;99040.59;5102284;28;20083;-53
2021/08/06 09:55:35;;;;;;;27.95;12.07;;;;;;;24.85;60.54;99043.03;5070211;28;20488;-50
2021/08/06 09:58:11;;;;;;;25.13;11.00;;;;;;;24.73;60.40;99041.63;5093352;28;20101;-53
2021/08/06 10:00:40;;;;;;;39.40;13.20;;;;;;;24.67;61.02;99040.44;5096378;28;20506;-56
2021/08/06 10:03:05;;;;;;;21.75;11.40;;;;;;;24.62;61.25;99047.22;5110591;28;20522;-54
2021/08/06 10:05:32;;;;;;;26.75;11.95;;;;;;;24.31;61.61;99023.78;5059101;28;20457;-49
2021/08/06 10:08:01;;;;;;;23.17;11.63;;;;;;;24.29;62.53;99054.13;5094909;28;20506;-51
2021/08/06 10:10:29;;;;;;;;;;;;;;;24.18;63.17;99052.56;5095319;28;20150;-50
2021/08/06 10:12:55;;;;;;;20.65;9.98;;;;;;;24.08;63.36;99049.13;5113195;28;20050;-52
2021/08/06 10:15:22;;;;;;;13.93;7.97;;;;;;;23.83;62.49;99049.91;5112790;28;20048;-51
2021/08/06 10:17:48;;;;;;;16.42;8.43;;;;;;;23.59;63.27;99063.78;5113167;28;20130;-50
2021/08/06 10:20:16;;;;;;;13.50;8.05;;;;;;;23.30;64.17;99068.38;5094718;28;20540;-48
2021/08/06 10:22:42;;;;;;;15.18;9.18;;;;;;;23.06;65.74;99061.81;5113334;28;20039;-51
2021/08/06 10:25:11;;;;;;;14.85;9.13;;;;;;;22.87;66.44;99069.03;5112613;28;20507;-49
2021/08/06 10:27:40;;;;;;;17.05;9.10;;;;;;;22.67;68.17;99063.75;5077951;28;20059;-54
2021/08/06 10:30:20;;;;;;;13.23;8.70;;;;;;;22.57;69.09;99064.75;5088358;28;20134;-51
2021/08/06 10:33:21;;;;;;;16.42;9.82;;;;;;;22.44;71.58;99072.19;5112799;28;20040;-50
2021/08/06 10:35:49;;;;;;;18.13;9.95;;;;;;;22.37;72.20;99067.44;5091414;28;20039;-48
2021/08/06 10:38:17;;;;;;;14.15;9.82;;;;;;;22.37;72.71;99064.78;5112800;28;20059;-50
2021/08/06 10:40:52;;;;;;;13.50;8.83;;;;;;;22.30;73.16;99065.50;5060139;28;20035;-51
2021/08/06 10:43:17;;;;;;;16.17;9.88;;;;;;;22.25;74.09;99071.22;5112717;28;20044;-50
2021/08/06 10:45:51;;;;;;;18.20;10.30;;;;;;;22.17;75.13;99070.25;5112317;28;20040;-51
2021/08/06 10:48:42;;;;;;;15.90;9.77;;;;;;;22.10;75.85;99075.28;5082970;28;20667;-47
2021/08/06 10:51:17;;;;;;;13.48;9.98;;;;;;;22.01;76.62;99076.13;5109117;28;20082;-49
2021/08/06 10:53:55;;;;;;;16.45;10.07;;;;;;;21.94;78.30;99067.91;5112100;28;20071;-49
2021/08/06 10:56:24;;;;;;;17.35;10.10;;;;;;;21.94;78.80;99077.63;5111599;28;20043;-49
2021/08/06 10:58:50;;;;;;;13.52;9.50;;;;;;;21.94;79.61;99080.28;5109549;28;20043;-54
2021/08/06 11:01:29;;;;;;;;;;;;;;;;;;;;;
2021/08/06 11:04:01;;;;;;;19.00;11.75;;;;;;;21.72;82.89;99072.59;5111343;28;20040;-48
2021/08/06 11:06:36;;;;;;;16.55;11.93;;;;;;;21.58;85.08;99065.88;5075191;28;20040;-50
2021/08/06 11:09:07;;;;;;;18.27;11.50;;;;;;;21.49;86.27;99067.56;5072366;28;20036;-52
2021/08/06 11:11:56;;;;;;;18.23;11.35;;;;;;;21.45;87.27;99074.09;5061565;28;20097;-49
2021/08/06 11:14:28;;;;;;;27.58;16.55;;;;;;;21.45;88.59;99066.16;5086458;28;20538;-53
2021/08/06 11:17:07;;;;;;;16.65;12.18;;;;;;;21.48;89.74;99062.38;5093141;28;20047;-52
2021/08/06 11:19:34;;;;;;;21.23;15.65;;;;;;;21.50;90.36;99058.66;5110734;28;20135;-53
2021/08/06 11:22:04;;;;;;;22.80;16.52;;;;;;;21.49;92.63;99049.03;5112305;28;20044;-48
2021/08/06 11:25:05;;;;;;;25.45;16.50;;;;;;;21.54;95.47;99057.41;5112044;28;20050;-52
2021/08/06 11:27:40;;;;;;;21.40;15.05;;;;;;;21.55;95.60;99047.66;5097056;28;20206;-49
2021/08/06 11:30:08;;;;;;;19.92;14.90;;;;;;;21.58;96.17;99041.25;5082748;28;20050;-50
2021/08/06 11:32:49;;;;;;;22.35;15.27;;;;;;;21.61;95.37;99043.63;5111209;28;20141;-52
2021/08/06 11:35:19;;;;;;;23.48;16.63;;;;;;;21.64;95.04;99032.75;5110980;28;20050;-52
2021/08/06 11:37:57;;;;;;;32.80;20.85;;;;;;;21.61;95.64;99014.53;5109794;28;20491;-51
2021/08/06 11:40:27;;;;;;;25.35;15.93;;;;;;;21.65;96.08;99027.34;5107464;28;20123;-46